createdAt,value
2022-12-01T00:01:14.091Z,98116.44
2022-12-01T00:03:25.570Z,98113.94
2022-12-01T00:05:33.567Z,98114.44
2022-12-01T00:07:41.721Z,98111.81
2022-12-01T00:10:02.129Z,98112.44
2022-12-01T00:12:11.185Z,98113.19
2022-12-01T00:14:19.335Z,98112.00
2022-12-01T00:16:28.004Z,98113.63
2022-12-01T00:18:38.628Z,98118.53
2022-12-01T00:20:51.177Z,98118.09
2022-12-01T00:22:58.952Z,98116.44
2022-12-01T00:25:07.732Z,98116.63
2022-12-01T00:27:15.672Z,98126.38
2022-12-01T00:29:23.626Z,98118.72
2022-12-01T00:31:31.951Z,98123.78
2022-12-01T00:33:43.159Z,98122.06
2022-12-01T00:35:51.279Z,98117.66
2022-12-01T00:38:00.185Z,98121.78
2022-12-01T00:40:09.853Z,98112.03
2022-12-01T00:42:20.944Z,98119.28
2022-12-01T00:44:28.879Z,98113.28
2022-12-01T00:46:37.691Z,98119.97
2022-12-01T00:48:48.554Z,98126.75
2022-12-01T00:50:58.512Z,98116.09
2022-12-01T00:53:06.267Z,98127.22
2022-12-01T00:55:14.336Z,98124.28
2022-12-01T00:57:22.231Z,98123.25
2022-12-01T00:59:30.414Z,98124.13
2022-12-01T01:01:38.273Z,98125.94
2022-12-01T01:03:48.696Z,98131.13
2022-12-01T01:05:56.725Z,98130.53
2022-12-01T01:08:04.715Z,98125.59
2022-12-01T01:10:14.098Z,98130.00
2022-12-01T01:12:22.200Z,98135.44
2022-12-01T01:14:30.384Z,98125.97
2022-12-01T01:16:39.765Z,98125.16
2022-12-01T01:18:50.402Z,98122.66
2022-12-01T01:20:59.768Z,98119.91
2022-12-01T01:23:07.885Z,98120.97
2022-12-01T01:25:15.839Z,98130.69
2022-12-01T01:27:24.801Z,98125.44
2022-12-01T01:29:32.720Z,98130.84
2022-12-01T01:31:41.794Z,98131.56
2022-12-01T01:33:52.856Z,98134.31
2022-12-01T01:36:02.217Z,98130.84
2022-12-01T01:38:09.960Z,98129.09
2022-12-01T01:40:18.373Z,98131.50
2022-12-01T01:42:26.320Z,98135.66
2022-12-01T01:44:52.195Z,98129.06
2022-12-01T01:47:00.157Z,98127.34
2022-12-01T01:49:14.643Z,98130.03
2022-12-01T01:51:27.444Z,98125.69
2022-12-01T01:53:35.816Z,98123.84
2022-12-01T01:55:43.972Z,98126.19
2022-12-01T01:57:52.038Z,98130.28
2022-12-01T02:00:05.525Z,98126.31
2022-12-01T02:02:20.634Z,98129.69
2022-12-01T02:04:32.564Z,98131.91
2022-12-01T02:06:40.741Z,98137.06
2022-12-01T02:08:48.820Z,98136.84
2022-12-01T02:11:25.684Z,98129.69
2022-12-01T02:13:44.960Z,98133.47
2022-12-01T02:16:03.632Z,98140.91
2022-12-01T02:18:25.518Z,98135.13
2022-12-01T02:21:10.706Z,98131.28
2022-12-01T02:24:03.122Z,98127.13
2022-12-01T02:26:31.562Z,98130.44
2022-12-01T02:28:59.553Z,98125.03
2022-12-01T02:31:15.627Z,98129.31
2022-12-01T02:33:29.788Z,98119.19
2022-12-01T02:35:45.509Z,98118.44
2022-12-01T02:38:04.486Z,98120.63
2022-12-01T02:40:20.433Z,98119.66
2022-12-01T02:42:53.884Z,98120.78
2022-12-01T02:45:06.104Z,98119.00
2022-12-01T02:47:18.968Z,98119.81
2022-12-01T02:49:32.744Z,98119.03
2022-12-01T02:51:44.789Z,98119.13
2022-12-01T02:53:53.267Z,98116.41
2022-12-01T02:56:02.031Z,98114.56
2022-12-01T02:58:16.564Z,98116.47
2022-12-01T03:00:24.545Z,98121.59
2022-12-01T03:02:43.615Z,98120.00
2022-12-01T03:05:05.744Z,98119.38
2022-12-01T03:07:27.252Z,98119.38
2022-12-01T03:09:49.891Z,98119.13
2022-12-01T03:12:09.791Z,98116.47
2022-12-01T03:14:26.523Z,98114.69
2022-12-01T03:16:42.059Z,98111.44
2022-12-01T03:18:58.294Z,98110.69
2022-12-01T03:21:11.313Z,98107.16
2022-12-01T03:23:24.012Z,98110.91
2022-12-01T03:25:34.664Z,98112.59
2022-12-01T03:28:19.363Z,98107.44
2022-12-01T03:30:17.489Z,98111.66
2022-12-01T03:32:31.751Z,98107.06
2022-12-01T03:34:47.720Z,98103.63
2022-12-01T03:36:59.681Z,98102.94
2022-12-01T03:39:16.633Z,98101.16
2022-12-01T03:41:31.196Z,98105.56
2022-12-01T03:43:48.225Z,98111.59
2022-12-01T03:46:02.727Z,98102.06
2022-12-01T03:48:11.460Z,98107.91
2022-12-01T03:50:22.168Z,98109.09
2022-12-01T03:52:42.147Z,98116.63
2022-12-01T03:54:58.835Z,98116.22
2022-12-01T03:57:14.338Z,98120.47
2022-12-01T03:59:26.008Z,98112.56
2022-12-01T04:01:36.381Z,98107.63
2022-12-01T04:03:45.770Z,98107.72
2022-12-01T04:05:58.136Z,98108.28
2022-12-01T04:08:06.329Z,98107.38
2022-12-01T04:10:15.030Z,98115.31
2022-12-01T04:12:29.604Z,98117.09
2022-12-01T04:14:37.470Z,98117.06
2022-12-01T04:16:45.531Z,98117.06
2022-12-01T04:18:53.502Z,98118.00
2022-12-01T04:21:04.727Z,98120.19
2022-12-01T04:23:33.835Z,98115.94
2022-12-01T04:25:41.948Z,98116.63
2022-12-01T04:27:50.109Z,98117.25
2022-12-01T04:30:02.384Z,98119.16
2022-12-01T04:32:10.349Z,98119.00
2022-12-01T04:34:18.621Z,98118.09
2022-12-01T04:36:31.281Z,98119.00
2022-12-01T04:38:40.171Z,98117.47
2022-12-01T04:40:47.912Z,98117.31
2022-12-01T04:42:56.073Z,98117.31
2022-12-01T04:45:04.003Z,98116.56
2022-12-01T04:47:12.331Z,98117.41
2022-12-01T04:49:20.729Z,98129.47
2022-12-01T04:51:31.502Z,98120.38
2022-12-01T04:53:40.830Z,98132.66
2022-12-01T04:55:48.674Z,98127.47
2022-12-01T04:57:58.155Z,98129.53
2022-12-01T05:00:13.112Z,98135.13
2022-12-01T05:02:21.003Z,98129.38
2022-12-01T05:04:28.796Z,98131.69
2022-12-01T05:06:39.532Z,98136.50
2022-12-01T05:08:47.663Z,98130.41
2022-12-01T05:10:58.708Z,98129.53
2022-12-01T05:13:07.557Z,98135.44
2022-12-01T05:15:15.716Z,98133.09
2022-12-01T05:17:23.656Z,98132.03
2022-12-01T05:19:44.031Z,98137.88
2022-12-01T05:21:55.903Z,98139.47
2022-12-01T05:24:03.739Z,98133.63
2022-12-01T05:26:12.542Z,98138.06
2022-12-01T05:28:20.562Z,98135.28
2022-12-01T05:30:29.039Z,98131.63
2022-12-01T05:32:38.146Z,98134.19
2022-12-01T05:34:46.028Z,98130.53
2022-12-01T05:36:57.608Z,98135.53
2022-12-01T05:39:05.741Z,98137.38
2022-12-01T05:41:13.634Z,98132.13
2022-12-01T05:43:27.154Z,98137.28
2022-12-01T05:45:37.063Z,98140.56
2022-12-01T05:47:44.992Z,98131.56
2022-12-01T05:49:52.781Z,98141.16
2022-12-01T05:52:03.717Z,98141.50
2022-12-01T05:54:11.571Z,98141.03
2022-12-01T05:56:19.511Z,98143.44
2022-12-01T05:58:27.861Z,98140.81
2022-12-01T06:00:39.619Z,98141.44
2022-12-01T06:02:51.829Z,98137.34
2022-12-01T06:04:59.866Z,98137.97
2022-12-01T06:07:10.250Z,98139.78
2022-12-01T06:09:19.729Z,98138.41
2022-12-01T06:11:28.644Z,98142.31
2022-12-01T06:13:36.379Z,98152.34
2022-12-01T06:15:47.680Z,98139.59
2022-12-01T06:17:55.418Z,98141.63
2022-12-01T06:20:06.565Z,98136.38
2022-12-01T06:22:19.817Z,98144.13
2022-12-01T06:24:28.126Z,98140.69
2022-12-01T06:26:36.592Z,98140.69
2022-12-01T06:28:44.364Z,98148.75
2022-12-01T06:30:54.498Z,98146.53
2022-12-01T06:33:06.122Z,98143.84
2022-12-01T06:35:16.439Z,98142.06
2022-12-01T06:37:27.189Z,98149.06
2022-12-01T06:39:35.187Z,98154.34
2022-12-01T06:41:43.146Z,98150.75
2022-12-01T06:43:51.341Z,98153.25
2022-12-01T06:46:02.342Z,98153.69
2022-12-01T06:48:12.776Z,98151.81
2022-12-01T06:50:21.618Z,98148.22
2022-12-01T06:52:32.449Z,98153.25
2022-12-01T06:54:41.787Z,98159.97
2022-12-01T06:56:50.078Z,98160.03
2022-12-01T06:59:01.261Z,98160.03
2022-12-01T07:01:13.309Z,98154.91
2022-12-01T07:06:06.057Z,98167.34
2022-12-01T07:08:20.174Z,98165.88
2022-12-01T07:10:28.451Z,98171.97
2022-12-01T07:12:37.029Z,98171.34
2022-12-01T07:14:46.543Z,98175.91
2022-12-01T07:16:54.458Z,98172.59
2022-12-01T07:19:03.177Z,98176.09
2022-12-01T07:21:16.010Z,98178.19
2022-12-01T07:23:26.407Z,98178.59
2022-12-01T07:25:35.132Z,98181.78
2022-12-01T07:27:53.012Z,98173.22
2022-12-01T07:30:00.879Z,98178.91
2022-12-01T07:32:09.178Z,98177.84
2022-12-01T07:34:17.089Z,98176.22
2022-12-01T07:36:25.183Z,98174.81
2022-12-01T07:38:37.577Z,98173.28
2022-12-01T07:40:45.341Z,98175.03
2022-12-01T07:42:53.925Z,98176.84
2022-12-01T07:45:02.876Z,98172.72
2022-12-01T07:47:10.616Z,98178.69
2022-12-01T07:49:18.848Z,98174.94
2022-12-01T07:51:28.432Z,98174.63
2022-12-01T07:53:39.323Z,98182.47
2022-12-01T07:55:51.215Z,98179.59
2022-12-01T07:58:02.128Z,98175.94
2022-12-01T08:00:11.636Z,98185.72
2022-12-01T08:02:23.821Z,98187.47
2022-12-01T08:04:32.230Z,98189.56
2022-12-01T08:06:41.016Z,98202.22
2022-12-01T08:08:52.347Z,98197.22
2022-12-01T08:11:04.536Z,98200.28
2022-12-01T08:13:17.112Z,98193.38
2022-12-01T08:15:25.423Z,98194.28
2022-12-01T08:17:33.237Z,98199.25
2022-12-01T08:19:42.264Z,98189.59
2022-12-01T08:21:51.320Z,98186.63
2022-12-01T08:24:01.898Z,98193.78
2022-12-01T08:26:12.619Z,98199.88
2022-12-01T08:28:20.983Z,98201.25
2022-12-01T08:30:29.317Z,98204.75
2022-12-01T08:32:37.538Z,98209.06
2022-12-01T08:34:49.326Z,98208.09
2022-12-01T08:37:00.855Z,98204.34
2022-12-01T08:39:11.993Z,98205.16
2022-12-01T08:41:20.111Z,98202.56
2022-12-01T08:43:56.111Z,98211.47
2022-12-01T08:45:56.854Z,98206.75
2022-12-01T08:48:04.691Z,98199.09
2022-12-01T08:50:13.828Z,98198.13
2022-12-01T08:52:21.775Z,98201.44
2022-12-01T08:54:32.129Z,98208.56
2022-12-01T08:56:43.106Z,98209.97
2022-12-01T08:58:52.386Z,98208.44
2022-12-01T09:01:08.047Z,98204.50
2022-12-01T09:03:18.886Z,98209.03
2022-12-01T09:05:28.177Z,98214.84
2022-12-01T09:07:36.435Z,98212.97
2022-12-01T09:09:48.739Z,98214.44
2022-12-01T09:11:58.689Z,98218.44
2022-12-01T09:14:06.886Z,98221.63
2022-12-01T09:16:17.322Z,98219.00
2022-12-01T09:18:26.022Z,98222.19
2022-12-01T09:20:34.968Z,98223.63
2022-12-01T09:22:42.785Z,98215.09
2022-12-01T09:24:53.108Z,98224.75
2022-12-01T09:27:03.431Z,98217.59
2022-12-01T09:29:14.205Z,98224.75
2022-12-01T09:31:23.519Z,98223.22
2022-12-01T09:33:31.689Z,98223.72
2022-12-01T09:35:39.858Z,98229.03
2022-12-01T09:37:47.657Z,98225.41
2022-12-01T09:40:00.198Z,98224.88
2022-12-01T09:42:13.004Z,98222.25
2022-12-01T09:44:33.097Z,98228.78
2022-12-01T09:46:46.308Z,98214.84
2022-12-01T09:48:57.376Z,98227.47
2022-12-01T09:51:05.171Z,98226.44
2022-12-01T09:53:22.933Z,98221.81
2022-12-01T09:55:36.639Z,98219.19
2022-12-01T09:57:48.140Z,98222.34
2022-12-01T09:59:57.670Z,98215.06
2022-12-01T10:02:14.369Z,98211.16
2022-12-01T10:04:27.916Z,98209.34
2022-12-01T10:06:41.563Z,98206.63
2022-12-01T10:08:59.799Z,98214.50
2022-12-01T10:11:20.543Z,98206.06
2022-12-01T10:13:30.567Z,98205.03
2022-12-01T10:15:50.033Z,98205.22
2022-12-01T10:18:13.194Z,98204.38
2022-12-01T10:20:28.858Z,98196.19
2022-12-01T10:23:03.404Z,98199.25
2022-12-01T10:25:23.706Z,98194.78
2022-12-01T10:27:46.535Z,98191.47
2022-12-01T10:30:06.419Z,98180.53
2022-12-01T10:32:20.092Z,98187.00
2022-12-01T10:34:30.656Z,98183.31
2022-12-01T10:37:02.078Z,98189.09
2022-12-01T10:39:16.858Z,98189.75
2022-12-01T10:41:27.522Z,98180.59
2022-12-01T10:43:44.454Z,98180.13
2022-12-01T10:45:52.915Z,98183.72
2022-12-01T10:48:19.978Z,98182.53
2022-12-01T10:50:32.827Z,98176.69
2022-12-01T10:52:42.510Z,98173.91
2022-12-01T10:54:51.777Z,98179.09
2022-12-01T10:57:00.407Z,98177.41
2022-12-01T10:59:27.340Z,98172.41
2022-12-01T11:01:37.443Z,98174.97
2022-12-01T11:03:47.662Z,98167.88
2022-12-01T11:05:58.434Z,98177.69
2022-12-01T11:08:06.399Z,98169.44
2022-12-01T11:10:26.260Z,98157.06
2022-12-01T11:12:39.274Z,98166.03
2022-12-01T11:14:54.011Z,98158.19
2022-12-01T11:17:18.504Z,98160.31
2022-12-01T11:19:33.308Z,98159.91
2022-12-01T11:21:49.425Z,98155.78
2022-12-01T11:23:59.368Z,98152.81
2022-12-01T11:26:17.913Z,98151.03
2022-12-01T11:28:26.450Z,98140.44
2022-12-01T11:30:38.857Z,98139.44
2022-12-01T11:32:55.740Z,98142.63
2022-12-01T11:35:09.189Z,98140.72
2022-12-01T11:37:21.723Z,98138.28
2022-12-01T11:39:34.590Z,98135.31
2022-12-01T11:41:43.676Z,98137.53
2022-12-01T11:44:01.237Z,98134.31
2022-12-01T11:46:12.987Z,98134.66
2022-12-01T11:48:29.042Z,98130.66
2022-12-01T11:50:40.211Z,98137.34
2022-12-01T11:52:49.831Z,98138.09
2022-12-01T11:55:04.405Z,98128.22
2022-12-01T11:58:12.603Z,98125.53
2022-12-01T11:59:46.758Z,98127.03
2022-12-01T12:02:23.458Z,98127.81
2022-12-01T12:04:50.067Z,98133.94
2022-12-01T12:07:06.011Z,98129.66
2022-12-01T12:09:43.403Z,98129.28
2022-12-01T12:12:04.119Z,98124.16
2022-12-01T12:14:40.105Z,98127.38
2022-12-01T12:17:01.627Z,98122.16
2022-12-01T12:19:33.690Z,98118.44
2022-12-01T12:21:56.698Z,98119.41
2022-12-01T12:24:28.598Z,98120.72
2022-12-01T12:26:43.405Z,98126.50
2022-12-01T12:29:13.612Z,98118.50
2022-12-01T12:31:31.383Z,98125.09
2022-12-01T12:34:14.254Z,98109.31
2022-12-01T12:36:37.242Z,98112.44
2022-12-01T12:38:57.613Z,98110.09
2022-12-01T12:41:19.441Z,98111.06
2022-12-01T12:43:38.008Z,98108.94
2022-12-01T12:46:03.837Z,98102.09
2022-12-01T12:48:26.210Z,98105.59
2022-12-01T12:50:39.609Z,98100.22
2022-12-01T12:52:54.531Z,98100.22
2022-12-01T12:55:08.898Z,98099.56
2022-12-01T12:57:26.024Z,98100.41
2022-12-01T12:59:39.964Z,98101.25
2022-12-01T13:02:03.158Z,98100.81
2022-12-01T13:04:19.412Z,98104.19
2022-12-01T13:06:32.562Z,98103.72
2022-12-01T13:08:46.270Z,98100.41
2022-12-01T13:11:02.240Z,98093.41
2022-12-01T13:13:22.455Z,98096.44
2022-12-01T13:15:32.742Z,98095.97
2022-12-01T13:17:44.830Z,98098.22
2022-12-01T13:19:52.787Z,98100.91
2022-12-01T13:22:03.676Z,98091.63
2022-12-01T13:24:22.767Z,98089.63
2022-12-01T13:26:32.960Z,98089.00
2022-12-01T13:28:45.873Z,98092.16
2022-12-01T13:31:05.609Z,98090.38
2022-12-01T13:33:20.668Z,98089.94
2022-12-01T13:35:32.378Z,98088.44
2022-12-01T13:37:42.139Z,98088.63
2022-12-01T13:39:57.429Z,98080.72
2022-12-01T13:42:09.372Z,98086.81
2022-12-01T13:44:26.599Z,98090.19
2022-12-01T13:46:52.641Z,98095.16
2022-12-01T13:49:02.436Z,98089.53
2022-12-01T13:51:10.416Z,98086.13
2022-12-01T13:53:28.928Z,98095.16
2022-12-01T13:55:59.118Z,98085.59
2022-12-01T13:58:28.270Z,98091.94
2022-12-01T14:00:37.614Z,98082.59
2022-12-01T14:02:46.419Z,98083.09
2022-12-01T14:04:54.244Z,98085.66
2022-12-01T14:07:26.583Z,98082.56
2022-12-01T14:09:38.688Z,98080.38
2022-12-01T14:11:59.506Z,98087.38
2022-12-01T14:14:26.151Z,98075.44
2022-12-01T14:16:52.842Z,98084.44
2022-12-01T14:19:02.068Z,98083.88
2022-12-01T14:21:12.538Z,98087.50
2022-12-01T14:23:29.034Z,98083.66
2022-12-01T14:25:37.652Z,98087.50
2022-12-01T14:27:48.463Z,98081.00
2022-12-01T14:29:56.409Z,98081.53
2022-12-01T14:32:28.475Z,98077.38
2022-12-01T14:34:40.301Z,98073.97
2022-12-01T14:36:51.971Z,98071.41
2022-12-01T14:39:06.810Z,98080.28
2022-12-01T14:41:28.641Z,98072.19
2022-12-01T14:43:54.617Z,98077.59
2022-12-01T14:46:10.548Z,98075.91
2022-12-01T14:48:22.953Z,98078.47
2022-12-01T14:50:43.504Z,98075.56
2022-12-01T14:52:59.136Z,98075.75
2022-12-01T14:55:11.179Z,98082.44
2022-12-01T14:57:27.414Z,98071.22
2022-12-01T14:59:37.948Z,98076.34
2022-12-01T15:01:45.876Z,98075.56
2022-12-01T15:03:58.010Z,98080.13
2022-12-01T15:06:09.423Z,98066.03
2022-12-01T15:10:55.277Z,98067.03
2022-12-01T15:13:16.355Z,98070.59
2022-12-01T15:15:29.169Z,98082.03
2022-12-01T15:17:39.295Z,98072.63
2022-12-01T15:19:47.197Z,98078.06
2022-12-01T15:21:55.743Z,98072.22
2022-12-01T15:24:07.148Z,98080.09
2022-12-01T15:26:22.289Z,98080.66
2022-12-01T15:28:35.095Z,98079.13
2022-12-01T15:30:49.180Z,98079.19
2022-12-01T15:32:57.421Z,98078.88
2022-12-01T15:35:05.725Z,98080.66
2022-12-01T15:37:16.735Z,98081.56
2022-12-01T15:39:35.613Z,98084.03
2022-12-01T15:41:46.885Z,98076.63
2022-12-01T15:43:59.075Z,98079.81
2022-12-01T15:46:19.079Z,98074.63
2022-12-01T15:48:31.917Z,98088.28
2022-12-01T15:50:46.431Z,98081.75
2022-12-01T15:52:55.153Z,98085.78
2022-12-01T15:55:08.452Z,98085.06
2022-12-01T15:57:20.690Z,98079.13
2022-12-01T15:59:34.791Z,98078.97
2022-12-01T16:01:47.406Z,98079.97
2022-12-01T16:03:58.988Z,98076.28
2022-12-01T16:06:07.108Z,98079.19
2022-12-01T16:08:20.320Z,98080.66
2022-12-01T16:10:32.078Z,98075.34
2022-12-01T16:12:40.215Z,98075.94
2022-12-01T16:14:54.164Z,98072.31
2022-12-01T16:17:05.136Z,98080.34
2022-12-01T16:19:39.036Z,98069.63
2022-12-01T16:21:49.698Z,98067.81
2022-12-01T16:24:02.937Z,98070.06
2022-12-01T16:26:11.742Z,98073.50
2022-12-01T16:28:25.939Z,98067.75
2022-12-01T16:30:41.289Z,98070.53
2022-12-01T16:33:01.638Z,98073.22
2022-12-01T16:35:23.770Z,98066.94
2022-12-01T16:37:31.696Z,98072.66
2022-12-01T16:39:39.898Z,98073.66
2022-12-01T16:41:48.185Z,98068.44
2022-12-01T16:44:20.647Z,98066.81
2022-12-01T16:46:24.796Z,98066.59
2022-12-01T16:48:37.716Z,98071.88
2022-12-01T16:50:45.718Z,98067.03
2022-12-01T16:52:53.912Z,98070.75
2022-12-01T16:55:02.941Z,98072.72
2022-12-01T16:57:14.741Z,98060.28
2022-12-01T16:59:23.031Z,98060.16
2022-12-01T17:01:32.499Z,98072.09
2022-12-01T17:03:43.234Z,98071.16
2022-12-01T17:05:52.546Z,98068.38
2022-12-01T17:08:00.908Z,98065.75
2022-12-01T17:10:10.018Z,98065.66
2022-12-01T17:12:18.181Z,98067.22
2022-12-01T17:14:26.388Z,98066.22
2022-12-01T17:16:34.350Z,98070.13
2022-12-01T17:18:47.125Z,98063.44
2022-12-01T17:21:01.655Z,98066.97
2022-12-01T17:23:11.714Z,98072.28
2022-12-01T17:25:20.342Z,98067.00
2022-12-01T17:27:28.671Z,98062.50
2022-12-01T17:29:39.478Z,98066.28
2022-12-01T17:31:49.567Z,98066.44
2022-12-01T17:34:00.128Z,98068.03
2022-12-01T17:36:13.656Z,98069.28
2022-12-01T17:38:21.455Z,98062.47
2022-12-01T17:40:30.195Z,98061.47
2022-12-01T17:42:38.156Z,98064.97
2022-12-01T17:44:46.082Z,98058.22
2022-12-01T17:46:54.097Z,98064.34
2022-12-01T17:49:08.638Z,98071.91
2022-12-01T17:51:18.134Z,98068.91
2022-12-01T17:53:28.491Z,98074.78
2022-12-01T17:55:36.395Z,98068.72
2022-12-01T17:57:44.571Z,98066.19
2022-12-01T17:59:52.399Z,98062.53
2022-12-01T18:02:02.986Z,98068.16
2022-12-01T18:04:13.511Z,98064.72
2022-12-01T18:06:22.341Z,98077.66
2022-12-01T18:08:32.502Z,98070.88
2022-12-01T18:10:41.326Z,98071.31
2022-12-01T18:12:49.235Z,98071.03
2022-12-01T18:14:57.631Z,98072.75
2022-12-01T18:17:06.227Z,98068.16
2022-12-01T18:19:16.810Z,98072.56
2022-12-01T18:21:27.238Z,98070.94
2022-12-01T18:23:35.888Z,98073.47
2022-12-01T18:25:44.921Z,98080.72
2022-12-01T18:27:58.930Z,98071.97
2022-12-01T18:30:07.977Z,98077.38
2022-12-01T18:32:16.816Z,98079.16
2022-12-01T18:34:29.547Z,98072.13
2022-12-01T18:36:40.497Z,98063.28
2022-12-01T18:38:48.781Z,98080.84
2022-12-01T18:41:00.141Z,98071.09
2022-12-01T18:43:08.485Z,98072.41
2022-12-01T18:45:20.742Z,98070.84
2022-12-01T18:47:29.261Z,98063.88
2022-12-01T18:49:39.720Z,98059.09
2022-12-01T18:51:47.620Z,98059.66
2022-12-01T18:53:57.221Z,98062.59
2022-12-01T18:56:06.509Z,98057.19
2022-12-01T18:58:14.356Z,98058.47
2022-12-01T19:00:23.516Z,98058.75
2022-12-01T19:02:32.388Z,98051.66
2022-12-01T19:04:42.890Z,98047.41
2022-12-01T19:06:50.917Z,98046.97
2022-12-01T19:09:03.371Z,98051.25
2022-12-01T19:11:11.235Z,98042.78
2022-12-01T19:13:21.558Z,98041.75
2022-12-01T19:15:33.029Z,98037.69
2022-12-01T19:17:41.165Z,98038.47
2022-12-01T19:19:55.567Z,98043.63
2022-12-01T19:22:06.073Z,98047.97
2022-12-01T19:24:14.354Z,98049.09
2022-12-01T19:26:25.645Z,98042.97
2022-12-01T19:28:37.619Z,98039.22
2022-12-01T19:30:51.928Z,98038.75
2022-12-01T19:33:06.249Z,98036.59
2022-12-01T19:35:18.347Z,98037.59
2022-12-01T19:37:27.753Z,98032.84
2022-12-01T19:39:35.930Z,98037.31
2022-12-01T19:41:44.885Z,98033.25
2022-12-01T19:43:52.908Z,98031.72
2022-12-01T19:46:01.060Z,98039.63
2022-12-01T19:48:09.625Z,98035.28
2022-12-01T19:50:20.435Z,98038.06
2022-12-01T19:52:28.834Z,98032.66
2022-12-01T19:54:37.776Z,98037.06
2022-12-01T19:56:46.276Z,98036.50
2022-12-01T19:58:54.273Z,98039.81
2022-12-01T20:01:07.804Z,98038.72
2022-12-01T20:03:15.701Z,98041.00
2022-12-01T20:05:27.360Z,98046.50
2022-12-01T20:07:36.520Z,98044.78
2022-12-01T20:09:49.733Z,98042.31
2022-12-01T20:11:58.151Z,98044.59
2022-12-01T20:14:07.855Z,98041.94
2022-12-01T20:16:17.552Z,98041.84
2022-12-01T20:18:26.042Z,98041.03
2022-12-01T20:20:37.053Z,98039.47
2022-12-01T20:22:45.116Z,98047.88
2022-12-01T20:24:53.148Z,98041.78
2022-12-01T20:27:01.445Z,98038.59
2022-12-01T20:29:13.022Z,98039.16
2022-12-01T20:31:23.168Z,98037.50
2022-12-01T20:33:32.024Z,98033.84
2022-12-01T20:35:42.896Z,98037.00
2022-12-01T20:37:50.866Z,98043.13
2022-12-01T20:39:58.892Z,98041.81
2022-12-01T20:42:07.558Z,98047.63
2022-12-01T20:44:19.114Z,98042.78
2022-12-01T20:46:28.309Z,98046.69
2022-12-01T20:48:36.853Z,98041.44
2022-12-01T20:50:47.649Z,98038.88
2022-12-01T20:52:55.796Z,98040.50
2022-12-01T20:55:05.027Z,98040.34
2022-12-01T20:57:12.927Z,98036.06
2022-12-01T20:59:20.854Z,98039.81
2022-12-01T21:01:29.307Z,98042.44
2022-12-01T21:03:37.545Z,98039.44
2022-12-01T21:05:48.859Z,98039.78
2022-12-01T21:07:57.504Z,98039.78
2022-12-01T21:10:06.364Z,98034.59
2022-12-01T21:12:29.257Z,98027.25
2022-12-01T21:14:41.510Z,98024.09
2022-12-01T21:16:53.464Z,98027.31
2022-12-01T21:19:06.526Z,98024.56
2022-12-01T21:21:25.189Z,98027.34
2022-12-01T21:23:33.385Z,98022.38
2022-12-01T21:25:42.640Z,98022.63
2022-12-01T21:27:51.376Z,98019.69
2022-12-01T21:29:59.734Z,98014.19
2022-12-01T21:32:16.449Z,98018.88
2022-12-01T21:34:27.720Z,98022.22
2022-12-01T21:36:38.387Z,98013.94
2022-12-01T21:38:48.382Z,98014.63
2022-12-01T21:40:57.411Z,98010.16
2022-12-01T21:43:20.252Z,98001.56
2022-12-01T21:45:31.321Z,98005.50
2022-12-01T21:47:39.425Z,98009.47
2022-12-01T21:49:48.444Z,98008.00
2022-12-01T21:51:59.014Z,98007.88
2022-12-01T21:54:13.258Z,98014.00
2022-12-01T21:56:25.818Z,98012.66
2022-12-01T21:58:37.127Z,98010.50
2022-12-01T22:00:45.630Z,98010.56
2022-12-01T22:02:55.729Z,98004.91
2022-12-01T22:05:04.017Z,98017.03
2022-12-01T22:07:18.524Z,98006.75
2022-12-01T22:09:29.860Z,98009.44
2022-12-01T22:11:38.156Z,98009.06
2022-12-01T22:13:48.413Z,98006.75
2022-12-01T22:15:57.547Z,97992.81
2022-12-01T22:18:13.993Z,97997.34
2022-12-01T22:20:25.897Z,97993.53
2022-12-01T22:22:39.520Z,97991.75
2022-12-01T22:24:50.386Z,97990.59
2022-12-01T22:27:12.514Z,97993.75
2022-12-01T22:29:29.358Z,97994.94
2022-12-01T22:31:37.261Z,97998.91
2022-12-01T22:33:45.638Z,97992.78
2022-12-01T22:35:55.199Z,97988.25
2022-12-01T22:38:22.330Z,97990.03
2022-12-01T22:40:40.896Z,97992.97
2022-12-01T22:42:48.817Z,97987.41
2022-12-01T22:44:57.902Z,97995.94
2022-12-01T22:47:06.502Z,97995.59
2022-12-01T22:49:20.844Z,97992.44
2022-12-01T22:51:42.465Z,97986.34
2022-12-01T22:53:54.937Z,97985.47
2022-12-01T22:56:04.237Z,97977.28
2022-12-01T22:58:25.247Z,97977.19
2022-12-01T23:00:34.413Z,97975.59
2022-12-01T23:02:43.057Z,97980.81
2022-12-01T23:04:53.073Z,97985.31
2022-12-01T23:07:12.164Z,97981.69
2022-12-01T23:09:23.463Z,97973.56
2022-12-01T23:11:31.955Z,97973.19
2022-12-01T23:13:41.080Z,97974.16
2022-12-01T23:15:50.578Z,97964.44
2022-12-01T23:17:58.610Z,97971.31
2022-12-01T23:20:27.662Z,97978.22
2022-12-01T23:22:35.763Z,97981.28
2022-12-01T23:24:46.904Z,97969.97
2022-12-01T23:26:56.012Z,97971.69
2022-12-01T23:29:04.564Z,97971.03
2022-12-01T23:31:13.326Z,97967.00
2022-12-01T23:33:23.842Z,97965.09
2022-12-01T23:35:32.315Z,97964.94
2022-12-01T23:37:42.367Z,97960.91
2022-12-01T23:39:54.003Z,97959.06
2022-12-01T23:42:03.488Z,97964.47
2022-12-01T23:44:21.232Z,97962.38
2022-12-01T23:46:31.041Z,97953.34
2022-12-01T23:48:42.554Z,97950.84
2022-12-01T23:50:53.585Z,97955.28
2022-12-01T23:53:02.034Z,97955.13
2022-12-01T23:55:21.807Z,97948.06
2022-12-01T23:57:33.487Z,97952.47
2022-12-01T23:59:41.633Z,97950.88
